Wright-Patterson Air Force Base (FFO)

 

Airport Diagram
Current Weather/Forecast (IFR Conditions)
METAR KFFO 260056Z 06007KT 1 1/2SM -DZ BR OVC005 00/M01 A2979 RMK AO2A SLP099 P0000 T00021012
TAF TAF AMD KFFO 252350Z 2523/2701 08009KT 3200 -DZ BR OVC006 650102 QNH2973INS BECMG 2602/2603 08012KT 6000 -RA BR BKN007 OVC010 650151 510104 QNH2960INS TEMPO 2603/2607 08012G20KT 3200 -RA BR OVC005 BECMG 2608/2609 10009KT 6000 -DZ BR OVC007 QNH2959INS BECMG 2615/2616 25009KT 6000 -RA OVC009 QNH2970INS TX06/2617Z TN00/2523Z

Airport Information

All Charts
General
Chart Name View
AIRPORT DIAGRAM
AIRPORT DIAGRAM
TAKEOFF MINIMUMS
TAKEOFF MINIMUMS

Arrivals
Chart Name Download
DANEI THREE
KEKEE FOUR
DANEI THREE
KEKEE FOUR

Approaches
Chart Name Download
ILS OR LOC RWY 05L
ILS OR LOC RWY 23R
RNAV (GPS) RWY 05L
RNAV (GPS) RWY 05R
RNAV (GPS) RWY 23L
RNAV (GPS) RWY 23R
TACAN RWY 05L
TACAN RWY 05R
TACAN RWY 23L
TACAN RWY 23R
ILS OR LOC RWY 05L
ILS OR LOC RWY 23R
RNAV (GPS) RWY 05L
RNAV (GPS) RWY 05R
RNAV (GPS) RWY 23L
RNAV (GPS) RWY 23R
TACAN RWY 05L
TACAN RWY 05R
TACAN RWY 23L
TACAN RWY 23R


Airport Statistics
Departures Arrivals Local
All Collected Stats since June 2016: 63 54 4
2021 Stats: 2 1 0
January Stats: 2 1 0

Inbound Traffic (Arrivals) - 0

No inbound traffic.


Outbound Traffic (Departures) - 0

No outbound traffic.


Local Traffic (Pattern) - 0

No local traffic.